sensor_id;sensor_type;location;lat;lon;timestamp;P1;durP1;ratioP1;P2;durP2;ratioP2
323;SDS011;149;51.094;17.002;2022-12-18T00:00:22;43.08;;;22.23;;
323;SDS011;149;51.094;17.002;2022-12-18T00:02:49;36.95;;;22.05;;
323;SDS011;149;51.094;17.002;2022-12-18T00:05:19;45.95;;;24.83;;
323;SDS011;149;51.094;17.002;2022-12-18T00:07:51;46.25;;;22.75;;
323;SDS011;149;51.094;17.002;2022-12-18T00:10:19;32.92;;;20.63;;
323;SDS011;149;51.094;17.002;2022-12-18T00:12:50;40.65;;;19.73;;
323;SDS011;149;51.094;17.002;2022-12-18T00:15:19;45.90;;;23.48;;
323;SDS011;149;51.094;17.002;2022-12-18T00:17:48;46.92;;;21.98;;
323;SDS011;149;51.094;17.002;2022-12-18T00:20:16;42.72;;;21.67;;
323;SDS011;149;51.094;17.002;2022-12-18T00:22:48;41.08;;;21.88;;
323;SDS011;149;51.094;17.002;2022-12-18T00:25:18;46.63;;;21.33;;
323;SDS011;149;51.094;17.002;2022-12-18T00:27:46;37.67;;;17.95;;
323;SDS011;149;51.094;17.002;2022-12-18T00:30:13;35.53;;;19.80;;
323;SDS011;149;51.094;17.002;2022-12-18T00:32:40;47.92;;;20.80;;
323;SDS011;149;51.094;17.002;2022-12-18T00:35:11;45.38;;;20.63;;
323;SDS011;149;51.094;17.002;2022-12-18T00:37:40;42.03;;;21.05;;
323;SDS011;149;51.094;17.002;2022-12-18T00:40:08;38.55;;;21.77;;
323;SDS011;149;51.094;17.002;2022-12-18T00:42:35;46.28;;;22.35;;
323;SDS011;149;51.094;17.002;2022-12-18T00:45:25;39.05;;;25.92;;
323;SDS011;149;51.094;17.002;2022-12-18T00:47:54;45.78;;;20.88;;
323;SDS011;149;51.094;17.002;2022-12-18T00:50:24;37.53;;;18.98;;
323;SDS011;149;51.094;17.002;2022-12-18T00:52:53;36.28;;;18.95;;
323;SDS011;149;51.094;17.002;2022-12-18T00:55:22;37.50;;;19.95;;
323;SDS011;149;51.094;17.002;2022-12-18T00:57:50;45.08;;;20.23;;
323;SDS011;149;51.094;17.002;2022-12-18T01:00:18;38.63;;;18.92;;
323;SDS011;149;51.094;17.002;2022-12-18T01:02:45;42.80;;;23.98;;
323;SDS011;149;51.094;17.002;2022-12-18T01:05:15;39.17;;;24.15;;
323;SDS011;149;51.094;17.002;2022-12-18T01:07:42;46.30;;;23.58;;
323;SDS011;149;51.094;17.002;2022-12-18T01:10:11;48.65;;;22.98;;
323;SDS011;149;51.094;17.002;2022-12-18T01:12:40;49.80;;;22.95;;
323;SDS011;149;51.094;17.002;2022-12-18T01:15:07;38.75;;;22.13;;
323;SDS011;149;51.094;17.002;2022-12-18T01:17:38;47.25;;;24.20;;
323;SDS011;149;51.094;17.002;2022-12-18T01:20:05;31.85;;;19.52;;
323;SDS011;149;51.094;17.002;2022-12-18T01:22:35;36.97;;;22.83;;
323;SDS011;149;51.094;17.002;2022-12-18T01:25:04;40.92;;;21.98;;
323;SDS011;149;51.094;17.002;2022-12-18T01:27:33;38.78;;;20.63;;
323;SDS011;149;51.094;17.002;2022-12-18T01:30:02;39.67;;;19.13;;
323;SDS011;149;51.094;17.002;2022-12-18T01:32:36;34.85;;;19.52;;
323;SDS011;149;51.094;17.002;2022-12-18T01:35:04;37.67;;;19.70;;
323;SDS011;149;51.094;17.002;2022-12-18T01:37:35;42.33;;;21.13;;
323;SDS011;149;51.094;17.002;2022-12-18T01:43:40;34.90;;;18.95;;
323;SDS011;149;51.094;17.002;2022-12-18T01:46:09;48.50;;;19.88;;
323;SDS011;149;51.094;17.002;2022-12-18T01:48:39;46.40;;;22.65;;
323;SDS011;149;51.094;17.002;2022-12-18T01:51:09;52.28;;;21.90;;
323;SDS011;149;51.094;17.002;2022-12-18T01:53:39;41.67;;;19.63;;
323;SDS011;149;51.094;17.002;2022-12-18T01:56:08;46.20;;;20.83;;
323;SDS011;149;51.094;17.002;2022-12-18T01:58:46;35.72;;;20.20;;
323;SDS011;149;51.094;17.002;2022-12-18T02:01:25;39.67;;;20.42;;
323;SDS011;149;51.094;17.002;2022-12-18T02:03:53;34.83;;;20.25;;
323;SDS011;149;51.094;17.002;2022-12-18T02:06:34;32.05;;;17.38;;
323;SDS011;149;51.094;17.002;2022-12-18T02:09:20;37.85;;;19.02;;
323;SDS011;149;51.094;17.002;2022-12-18T02:17:58;35.95;;;18.45;;
323;SDS011;149;51.094;17.002;2022-12-18T02:20:48;37.20;;;17.45;;
323;SDS011;149;51.094;17.002;2022-12-18T02:26:51;35.03;;;18.58;;
323;SDS011;149;51.094;17.002;2022-12-18T02:29:27;38.90;;;19.02;;
323;SDS011;149;51.094;17.002;2022-12-18T02:32:00;38.25;;;19.25;;
323;SDS011;149;51.094;17.002;2022-12-18T02:34:38;29.98;;;18.27;;
323;SDS011;149;51.094;17.002;2022-12-18T02:37:07;36.13;;;19.05;;
323;SDS011;149;51.094;17.002;2022-12-18T02:39:42;43.88;;;20.58;;
323;SDS011;149;51.094;17.002;2022-12-18T02:42:13;44.97;;;21.23;;
323;SDS011;149;51.094;17.002;2022-12-18T02:44:44;37.50;;;20.25;;
323;SDS011;149;51.094;17.002;2022-12-18T02:47:24;39.10;;;20.42;;
323;SDS011;149;51.094;17.002;2022-12-18T02:52:30;35.75;;;20.17;;
323;SDS011;149;51.094;17.002;2022-12-18T03:00:58;35.25;;;19.67;;
323;SDS011;149;51.094;17.002;2022-12-18T03:06:44;35.10;;;19.17;;
323;SDS011;149;51.094;17.002;2022-12-18T03:09:36;33.97;;;20.90;;
323;SDS011;149;51.094;17.002;2022-12-18T03:12:15;33.10;;;19.40;;
323;SDS011;149;51.094;17.002;2022-12-18T03:17:44;33.63;;;17.50;;
323;SDS011;149;51.094;17.002;2022-12-18T03:20:19;39.40;;;18.95;;
323;SDS011;149;51.094;17.002;2022-12-18T03:22:50;39.20;;;21.23;;
323;SDS011;149;51.094;17.002;2022-12-18T03:25:20;36.63;;;18.63;;
323;SDS011;149;51.094;17.002;2022-12-18T03:27:53;42.60;;;20.83;;
323;SDS011;149;51.094;17.002;2022-12-18T03:30:27;38.47;;;20.23;;
323;SDS011;149;51.094;17.002;2022-12-18T03:32:58;32.58;;;19.85;;
323;SDS011;149;51.094;17.002;2022-12-18T03:35:33;36.47;;;19.55;;
323;SDS011;149;51.094;17.002;2022-12-18T03:38:04;41.55;;;20.55;;
323;SDS011;149;51.094;17.002;2022-12-18T03:40:41;31.98;;;19.88;;
323;SDS011;149;51.094;17.002;2022-12-18T03:51:51;36.50;;;18.80;;
323;SDS011;149;51.094;17.002;2022-12-18T03:54:23;29.67;;;18.00;;
323;SDS011;149;51.094;17.002;2022-12-18T03:57:03;33.47;;;20.15;;
323;SDS011;149;51.094;17.002;2022-12-18T03:59:35;34.00;;;18.88;;
323;SDS011;149;51.094;17.002;2022-12-18T04:02:05;37.42;;;19.60;;
323;SDS011;149;51.094;17.002;2022-12-18T04:04:38;40.78;;;21.92;;
323;SDS011;149;51.094;17.002;2022-12-18T04:07:07;41.72;;;24.60;;
323;SDS011;149;51.094;17.002;2022-12-18T04:09:34;40.17;;;21.52;;
323;SDS011;149;51.094;17.002;2022-12-18T04:12:06;40.40;;;22.48;;
323;SDS011;149;51.094;17.002;2022-12-18T04:14:35;43.75;;;24.08;;
323;SDS011;149;51.094;17.002;2022-12-18T04:17:02;38.20;;;22.80;;
323;SDS011;149;51.094;17.002;2022-12-18T04:19:30;45.55;;;20.98;;
323;SDS011;149;51.094;17.002;2022-12-18T04:21:58;42.22;;;21.15;;
323;SDS011;149;51.094;17.002;2022-12-18T04:24:25;45.65;;;22.95;;
323;SDS011;149;51.094;17.002;2022-12-18T04:26:53;35.60;;;20.77;;
323;SDS011;149;51.094;17.002;2022-12-18T04:29:20;40.30;;;20.83;;
323;SDS011;149;51.094;17.002;2022-12-18T04:31:47;36.45;;;18.25;;
323;SDS011;149;51.094;17.002;2022-12-18T04:34:14;37.75;;;21.10;;
323;SDS011;149;51.094;17.002;2022-12-18T04:36:42;38.97;;;19.02;;
323;SDS011;149;51.094;17.002;2022-12-18T04:39:11;37.75;;;19.13;;
323;SDS011;149;51.094;17.002;2022-12-18T04:41:39;32.90;;;19.73;;
323;SDS011;149;51.094;17.002;2022-12-18T04:44:07;43.60;;;20.38;;
323;SDS011;149;51.094;17.002;2022-12-18T04:46:34;40.65;;;19.42;;
323;SDS011;149;51.094;17.002;2022-12-18T04:49:03;39.33;;;23.23;;
323;SDS011;149;51.094;17.002;2022-12-18T04:51:30;36.17;;;18.20;;
323;SDS011;149;51.094;17.002;2022-12-18T04:53:57;37.95;;;20.40;;
323;SDS011;149;51.094;17.002;2022-12-18T04:56:24;46.10;;;22.17;;
323;SDS011;149;51.094;17.002;2022-12-18T04:58:52;43.50;;;22.30;;
323;SDS011;149;51.094;17.002;2022-12-18T05:01:22;38.38;;;20.02;;
323;SDS011;149;51.094;17.002;2022-12-18T05:03:56;37.10;;;20.85;;
323;SDS011;149;51.094;17.002;2022-12-18T05:06:23;36.45;;;19.02;;
323;SDS011;149;51.094;17.002;2022-12-18T05:08:50;40.45;;;19.02;;
323;SDS011;149;51.094;17.002;2022-12-18T05:11:17;39.33;;;18.23;;
323;SDS011;149;51.094;17.002;2022-12-18T05:13:47;34.70;;;20.98;;
323;SDS011;149;51.094;17.002;2022-12-18T05:16:15;33.60;;;17.80;;
323;SDS011;149;51.094;17.002;2022-12-18T05:18:43;38.25;;;19.15;;
323;SDS011;149;51.094;17.002;2022-12-18T05:21:11;35.28;;;18.65;;
323;SDS011;149;51.094;17.002;2022-12-18T05:23:38;36.78;;;19.55;;
323;SDS011;149;51.094;17.002;2022-12-18T05:26:06;33.83;;;16.63;;
323;SDS011;149;51.094;17.002;2022-12-18T05:28:34;37.05;;;21.27;;
323;SDS011;149;51.094;17.002;2022-12-18T05:31:04;30.10;;;16.92;;
323;SDS011;149;51.094;17.002;2022-12-18T05:33:32;33.97;;;20.52;;
323;SDS011;149;51.094;17.002;2022-12-18T05:36:01;26.45;;;16.40;;
323;SDS011;149;51.094;17.002;2022-12-18T05:38:30;32.85;;;17.88;;
323;SDS011;149;51.094;17.002;2022-12-18T05:40:59;30.30;;;17.80;;
323;SDS011;149;51.094;17.002;2022-12-18T05:43:28;32.60;;;19.42;;
323;SDS011;149;51.094;17.002;2022-12-18T05:45:56;33.45;;;18.90;;
323;SDS011;149;51.094;17.002;2022-12-18T05:52:12;36.53;;;23.30;;
323;SDS011;149;51.094;17.002;2022-12-18T05:54:56;35.65;;;24.15;;
323;SDS011;149;51.094;17.002;2022-12-18T05:57:23;35.30;;;21.05;;
323;SDS011;149;51.094;17.002;2022-12-18T05:59:52;38.13;;;21.70;;
323;SDS011;149;51.094;17.002;2022-12-18T06:02:19;37.05;;;22.38;;
323;SDS011;149;51.094;17.002;2022-12-18T06:04:48;38.17;;;21.42;;
323;SDS011;149;51.094;17.002;2022-12-18T06:07:19;37.13;;;21.35;;
323;SDS011;149;51.094;17.002;2022-12-18T06:09:46;34.55;;;21.08;;
323;SDS011;149;51.094;17.002;2022-12-18T06:12:13;33.30;;;20.30;;
323;SDS011;149;51.094;17.002;2022-12-18T06:14:43;35.70;;;20.20;;
323;SDS011;149;51.094;17.002;2022-12-18T06:17:11;43.70;;;22.58;;
323;SDS011;149;51.094;17.002;2022-12-18T06:19:38;45.40;;;24.40;;
323;SDS011;149;51.094;17.002;2022-12-18T06:22:06;41.38;;;23.67;;
323;SDS011;149;51.094;17.002;2022-12-18T06:24:35;47.65;;;24.65;;
323;SDS011;149;51.094;17.002;2022-12-18T06:27:03;47.22;;;25.75;;
323;SDS011;149;51.094;17.002;2022-12-18T06:29:30;56.72;;;26.50;;
323;SDS011;149;51.094;17.002;2022-12-18T06:31:57;51.15;;;25.75;;
323;SDS011;149;51.094;17.002;2022-12-18T06:34:24;39.15;;;22.63;;
323;SDS011;149;51.094;17.002;2022-12-18T06:36:51;52.30;;;28.25;;
323;SDS011;149;51.094;17.002;2022-12-18T06:39:18;46.42;;;25.83;;
323;SDS011;149;51.094;17.002;2022-12-18T06:41:46;49.50;;;28.25;;
323;SDS011;149;51.094;17.002;2022-12-18T06:44:15;51.45;;;26.05;;
323;SDS011;149;51.094;17.002;2022-12-18T06:46:51;42.80;;;25.00;;
323;SDS011;149;51.094;17.002;2022-12-18T06:49:19;53.05;;;31.27;;
323;SDS011;149;51.094;17.002;2022-12-18T06:51:55;50.03;;;27.23;;
323;SDS011;149;51.094;17.002;2022-12-18T06:56:56;47.88;;;26.23;;
323;SDS011;149;51.094;17.002;2022-12-18T06:59:23;50.60;;;28.52;;
323;SDS011;149;51.094;17.002;2022-12-18T07:01:52;58.33;;;27.00;;
323;SDS011;149;51.094;17.002;2022-12-18T07:04:21;56.80;;;28.42;;
323;SDS011;149;51.094;17.002;2022-12-18T07:06:49;63.85;;;28.90;;
323;SDS011;149;51.094;17.002;2022-12-18T07:09:19;52.70;;;26.95;;
323;SDS011;149;51.094;17.002;2022-12-18T07:11:47;49.85;;;26.55;;
323;SDS011;149;51.094;17.002;2022-12-18T07:14:16;51.33;;;27.85;;
323;SDS011;149;51.094;17.002;2022-12-18T07:16:46;53.13;;;29.67;;
323;SDS011;149;51.094;17.002;2022-12-18T07:19:14;47.20;;;27.23;;
323;SDS011;149;51.094;17.002;2022-12-18T07:21:42;48.72;;;27.23;;
323;SDS011;149;51.094;17.002;2022-12-18T07:24:13;46.75;;;26.95;;
323;SDS011;149;51.094;17.002;2022-12-18T07:26:45;42.97;;;23.35;;
323;SDS011;149;51.094;17.002;2022-12-18T07:29:14;47.38;;;24.58;;
323;SDS011;149;51.094;17.002;2022-12-18T07:31:47;34.53;;;20.85;;
323;SDS011;149;51.094;17.002;2022-12-18T07:34:16;40.88;;;23.23;;
323;SDS011;149;51.094;17.002;2022-12-18T07:36:45;39.45;;;21.83;;
323;SDS011;149;51.094;17.002;2022-12-18T07:39:12;32.78;;;20.17;;
323;SDS011;149;51.094;17.002;2022-12-18T07:41:39;36.58;;;22.33;;
323;SDS011;149;51.094;17.002;2022-12-18T07:44:12;44.15;;;23.55;;
323;SDS011;149;51.094;17.002;2022-12-18T07:46:41;40.38;;;24.20;;
323;SDS011;149;51.094;17.002;2022-12-18T07:49:08;42.70;;;25.23;;
323;SDS011;149;51.094;17.002;2022-12-18T07:51:35;42.47;;;23.38;;
323;SDS011;149;51.094;17.002;2022-12-18T07:54:04;42.20;;;24.48;;
323;SDS011;149;51.094;17.002;2022-12-18T07:56:31;45.50;;;25.00;;
323;SDS011;149;51.094;17.002;2022-12-18T07:58:58;51.45;;;28.92;;
323;SDS011;149;51.094;17.002;2022-12-18T08:01:26;49.63;;;28.95;;
323;SDS011;149;51.094;17.002;2022-12-18T08:03:54;41.92;;;25.60;;
323;SDS011;149;51.094;17.002;2022-12-18T08:06:22;45.88;;;26.30;;
323;SDS011;149;51.094;17.002;2022-12-18T08:08:54;32.40;;;20.50;;
323;SDS011;149;51.094;17.002;2022-12-18T08:11:25;41.97;;;22.98;;
323;SDS011;149;51.094;17.002;2022-12-18T08:13:55;42.13;;;26.58;;
323;SDS011;149;51.094;17.002;2022-12-18T08:16:25;34.90;;;23.00;;
323;SDS011;149;51.094;17.002;2022-12-18T08:18:56;33.65;;;20.33;;
323;SDS011;149;51.094;17.002;2022-12-18T08:21:27;41.75;;;21.98;;
323;SDS011;149;51.094;17.002;2022-12-18T08:23:56;40.92;;;23.02;;
323;SDS011;149;51.094;17.002;2022-12-18T08:26:26;37.45;;;22.52;;
323;SDS011;149;51.094;17.002;2022-12-18T08:28:55;39.70;;;23.67;;
323;SDS011;149;51.094;17.002;2022-12-18T08:31:23;46.90;;;27.88;;
323;SDS011;149;51.094;17.002;2022-12-18T08:33:52;45.95;;;28.20;;
323;SDS011;149;51.094;17.002;2022-12-18T08:36:20;52.10;;;27.95;;
323;SDS011;149;51.094;17.002;2022-12-18T08:38:50;42.92;;;21.77;;
323;SDS011;149;51.094;17.002;2022-12-18T08:41:17;48.65;;;27.60;;
323;SDS011;149;51.094;17.002;2022-12-18T08:43:45;60.45;;;29.13;;
323;SDS011;149;51.094;17.002;2022-12-18T08:46:37;55.45;;;28.27;;
323;SDS011;149;51.094;17.002;2022-12-18T08:49:06;43.35;;;26.05;;
323;SDS011;149;51.094;17.002;2022-12-18T08:51:34;45.63;;;23.25;;
323;SDS011;149;51.094;17.002;2022-12-18T08:54:07;50.42;;;27.08;;
323;SDS011;149;51.094;17.002;2022-12-18T08:56:36;45.40;;;26.20;;
323;SDS011;149;51.094;17.002;2022-12-18T08:59:08;48.00;;;24.63;;
323;SDS011;149;51.094;17.002;2022-12-18T09:01:44;38.17;;;21.17;;
323;SDS011;149;51.094;17.002;2022-12-18T09:04:14;49.03;;;28.23;;
323;SDS011;149;51.094;17.002;2022-12-18T09:06:46;49.10;;;25.63;;
323;SDS011;149;51.094;17.002;2022-12-18T09:09:13;50.85;;;27.40;;
323;SDS011;149;51.094;17.002;2022-12-18T09:11:42;40.53;;;23.40;;
323;SDS011;149;51.094;17.002;2022-12-18T09:14:09;47.97;;;26.00;;
323;SDS011;149;51.094;17.002;2022-12-18T09:16:39;49.45;;;24.95;;
323;SDS011;149;51.094;17.002;2022-12-18T09:19:06;43.72;;;24.60;;
323;SDS011;149;51.094;17.002;2022-12-18T09:21:37;40.17;;;21.60;;
323;SDS011;149;51.094;17.002;2022-12-18T09:24:13;40.88;;;23.45;;
323;SDS011;149;51.094;17.002;2022-12-18T09:26:42;46.45;;;24.27;;
323;SDS011;149;51.094;17.002;2022-12-18T09:29:13;45.42;;;25.75;;
323;SDS011;149;51.094;17.002;2022-12-18T09:31:41;46.13;;;23.55;;
323;SDS011;149;51.094;17.002;2022-12-18T09:34:08;41.72;;;25.42;;
323;SDS011;149;51.094;17.002;2022-12-18T09:36:35;38.78;;;21.30;;
323;SDS011;149;51.094;17.002;2022-12-18T09:39:02;38.17;;;22.10;;
323;SDS011;149;51.094;17.002;2022-12-18T09:46:43;42.28;;;23.48;;
323;SDS011;149;51.094;17.002;2022-12-18T09:49:19;40.22;;;22.40;;
323;SDS011;149;51.094;17.002;2022-12-18T09:51:54;38.75;;;21.67;;
323;SDS011;149;51.094;17.002;2022-12-18T09:54:33;38.45;;;22.95;;
323;SDS011;149;51.094;17.002;2022-12-18T09:57:18;41.78;;;22.75;;
323;SDS011;149;51.094;17.002;2022-12-18T10:00:31;39.22;;;22.35;;
323;SDS011;149;51.094;17.002;2022-12-18T10:02:45;42.55;;;25.85;;
323;SDS011;149;51.094;17.002;2022-12-18T10:05:20;41.58;;;21.70;;
323;SDS011;149;51.094;17.002;2022-12-18T10:08:05;52.25;;;28.10;;
323;SDS011;149;51.094;17.002;2022-12-18T10:11:00;40.95;;;25.27;;
323;SDS011;149;51.094;17.002;2022-12-18T10:13:43;36.28;;;20.67;;
323;SDS011;149;51.094;17.002;2022-12-18T10:16:16;55.13;;;26.73;;
323;SDS011;149;51.094;17.002;2022-12-18T10:25:01;54.72;;;31.02;;
323;SDS011;149;51.094;17.002;2022-12-18T10:27:44;44.13;;;24.02;;
323;SDS011;149;51.094;17.002;2022-12-18T10:30:12;44.47;;;28.08;;
323;SDS011;149;51.094;17.002;2022-12-18T10:32:42;47.85;;;25.15;;
323;SDS011;149;51.094;17.002;2022-12-18T10:35:31;45.25;;;25.60;;
323;SDS011;149;51.094;17.002;2022-12-18T10:43:19;48.38;;;26.15;;
323;SDS011;149;51.094;17.002;2022-12-18T10:46:14;40.75;;;21.98;;
323;SDS011;149;51.094;17.002;2022-12-18T10:51:28;42.60;;;24.00;;
323;SDS011;149;51.094;17.002;2022-12-18T10:53:59;46.85;;;26.73;;
323;SDS011;149;51.094;17.002;2022-12-18T10:56:32;42.05;;;26.13;;
323;SDS011;149;51.094;17.002;2022-12-18T10:59:02;61.40;;;28.05;;
323;SDS011;149;51.094;17.002;2022-12-18T11:04:25;57.15;;;26.48;;
323;SDS011;149;51.094;17.002;2022-12-18T11:06:57;49.47;;;26.52;;
323;SDS011;149;51.094;17.002;2022-12-18T11:09:33;50.63;;;27.15;;
323;SDS011;149;51.094;17.002;2022-12-18T11:12:03;50.53;;;26.70;;
323;SDS011;149;51.094;17.002;2022-12-18T11:17:20;59.40;;;27.70;;
323;SDS011;149;51.094;17.002;2022-12-18T11:19:56;46.90;;;29.13;;
323;SDS011;149;51.094;17.002;2022-12-18T11:22:28;51.35;;;28.13;;
323;SDS011;149;51.094;17.002;2022-12-18T11:34:13;47.67;;;22.42;;
323;SDS011;149;51.094;17.002;2022-12-18T11:36:57;46.33;;;23.38;;
323;SDS011;149;51.094;17.002;2022-12-18T11:39:31;42.60;;;22.67;;
323;SDS011;149;51.094;17.002;2022-12-18T11:42:27;41.22;;;22.85;;
323;SDS011;149;51.094;17.002;2022-12-18T11:44:59;45.60;;;24.63;;
323;SDS011;149;51.094;17.002;2022-12-18T11:50:20;36.08;;;22.38;;
323;SDS011;149;51.094;17.002;2022-12-18T11:52:54;49.72;;;23.55;;
323;SDS011;149;51.094;17.002;2022-12-18T11:55:39;53.47;;;27.67;;
323;SDS011;149;51.094;17.002;2022-12-18T12:09:16;42.50;;;26.70;;
323;SDS011;149;51.094;17.002;2022-12-18T12:17:07;38.75;;;24.50;;
323;SDS011;149;51.094;17.002;2022-12-18T12:19:44;42.50;;;24.65;;
323;SDS011;149;51.094;17.002;2022-12-18T12:22:22;46.95;;;22.48;;
323;SDS011;149;51.094;17.002;2022-12-18T12:25:11;44.10;;;24.75;;
323;SDS011;149;51.094;17.002;2022-12-18T12:30:30;45.60;;;23.35;;
323;SDS011;149;51.094;17.002;2022-12-18T12:33:16;49.92;;;24.30;;
323;SDS011;149;51.094;17.002;2022-12-18T12:35:56;44.60;;;27.60;;
323;SDS011;149;51.094;17.002;2022-12-18T12:38:35;43.13;;;26.42;;
323;SDS011;149;51.094;17.002;2022-12-18T12:41:17;41.72;;;22.17;;
323;SDS011;149;51.094;17.002;2022-12-18T12:44:07;44.95;;;26.73;;
323;SDS011;149;51.094;17.002;2022-12-18T12:46:39;49.00;;;27.42;;
323;SDS011;149;51.094;17.002;2022-12-18T12:49:17;46.30;;;26.77;;
323;SDS011;149;51.094;17.002;2022-12-18T12:52:32;49.90;;;26.50;;
323;SDS011;149;51.094;17.002;2022-12-18T12:54:43;52.50;;;23.23;;
323;SDS011;149;51.094;17.002;2022-12-18T12:57:54;40.95;;;23.52;;
323;SDS011;149;51.094;17.002;2022-12-18T13:00:26;51.17;;;28.20;;
323;SDS011;149;51.094;17.002;2022-12-18T13:06:00;51.55;;;26.38;;
323;SDS011;149;51.094;17.002;2022-12-18T13:08:52;52.20;;;25.98;;
323;SDS011;149;51.094;17.002;2022-12-18T13:14:46;48.90;;;25.48;;
323;SDS011;149;51.094;17.002;2022-12-18T13:17:14;57.88;;;29.95;;
323;SDS011;149;51.094;17.002;2022-12-18T13:19:51;61.60;;;29.40;;
323;SDS011;149;51.094;17.002;2022-12-18T13:22:46;46.55;;;23.80;;
323;SDS011;149;51.094;17.002;2022-12-18T13:28:15;53.28;;;26.50;;
323;SDS011;149;51.094;17.002;2022-12-18T13:30:50;50.40;;;25.90;;
323;SDS011;149;51.094;17.002;2022-12-18T13:41:24;55.13;;;27.75;;
323;SDS011;149;51.094;17.002;2022-12-18T13:43:53;52.20;;;28.52;;
323;SDS011;149;51.094;17.002;2022-12-18T13:49:00;52.60;;;28.92;;
323;SDS011;149;51.094;17.002;2022-12-18T13:51:30;55.13;;;27.08;;
323;SDS011;149;51.094;17.002;2022-12-18T13:54:06;54.60;;;28.58;;
323;SDS011;149;51.094;17.002;2022-12-18T13:56:48;62.53;;;28.50;;
323;SDS011;149;51.094;17.002;2022-12-18T13:59:22;59.47;;;32.90;;
323;SDS011;149;51.094;17.002;2022-12-18T14:04:30;48.53;;;26.13;;
323;SDS011;149;51.094;17.002;2022-12-18T14:07:04;62.80;;;29.13;;
323;SDS011;149;51.094;17.002;2022-12-18T14:09:42;54.85;;;27.40;;
323;SDS011;149;51.094;17.002;2022-12-18T14:12:16;45.20;;;26.20;;
323;SDS011;149;51.094;17.002;2022-12-18T14:15:39;62.83;;;27.52;;
323;SDS011;149;51.094;17.002;2022-12-18T14:20:51;53.90;;;25.02;;
323;SDS011;149;51.094;17.002;2022-12-18T14:23:25;52.45;;;24.75;;
323;SDS011;149;51.094;17.002;2022-12-18T14:25:57;57.78;;;27.10;;
323;SDS011;149;51.094;17.002;2022-12-18T14:28:31;46.63;;;25.67;;
323;SDS011;149;51.094;17.002;2022-12-18T14:30:58;54.65;;;27.90;;
323;SDS011;149;51.094;17.002;2022-12-18T14:33:25;53.33;;;28.05;;
323;SDS011;149;51.094;17.002;2022-12-18T14:35:54;56.92;;;26.05;;
323;SDS011;149;51.094;17.002;2022-12-18T14:38:30;52.65;;;28.15;;
323;SDS011;149;51.094;17.002;2022-12-18T14:41:00;51.60;;;28.23;;
323;SDS011;149;51.094;17.002;2022-12-18T14:43:29;52.83;;;28.52;;
323;SDS011;149;51.094;17.002;2022-12-18T14:45:59;50.20;;;28.08;;
323;SDS011;149;51.094;17.002;2022-12-18T14:48:36;49.40;;;28.25;;
323;SDS011;149;51.094;17.002;2022-12-18T14:51:12;58.08;;;26.70;;
323;SDS011;149;51.094;17.002;2022-12-18T14:53:48;55.42;;;28.55;;
323;SDS011;149;51.094;17.002;2022-12-18T14:56:36;60.65;;;26.50;;
323;SDS011;149;51.094;17.002;2022-12-18T14:59:19;55.80;;;29.85;;
323;SDS011;149;51.094;17.002;2022-12-18T15:04:35;54.50;;;28.42;;
323;SDS011;149;51.094;17.002;2022-12-18T15:07:17;55.42;;;29.48;;
323;SDS011;149;51.094;17.002;2022-12-18T15:10:02;58.47;;;27.75;;
323;SDS011;149;51.094;17.002;2022-12-18T15:18:00;62.92;;;30.58;;
323;SDS011;149;51.094;17.002;2022-12-18T15:20:30;57.70;;;30.45;;
323;SDS011;149;51.094;17.002;2022-12-18T15:22:58;58.97;;;29.77;;
323;SDS011;149;51.094;17.002;2022-12-18T15:25:31;63.47;;;32.42;;
323;SDS011;149;51.094;17.002;2022-12-18T15:28:02;67.22;;;30.67;;
323;SDS011;149;51.094;17.002;2022-12-18T15:30:57;65.22;;;29.05;;
323;SDS011;149;51.094;17.002;2022-12-18T15:33:26;56.28;;;29.33;;
323;SDS011;149;51.094;17.002;2022-12-18T15:35:58;58.35;;;31.40;;
323;SDS011;149;51.094;17.002;2022-12-18T15:38:25;62.08;;;32.38;;
323;SDS011;149;51.094;17.002;2022-12-18T15:40:53;61.97;;;30.60;;
323;SDS011;149;51.094;17.002;2022-12-18T15:43:24;67.38;;;30.42;;
323;SDS011;149;51.094;17.002;2022-12-18T15:46:01;65.60;;;27.95;;
323;SDS011;149;51.094;17.002;2022-12-18T15:48:30;62.67;;;30.27;;
323;SDS011;149;51.094;17.002;2022-12-18T15:51:00;70.80;;;30.17;;
323;SDS011;149;51.094;17.002;2022-12-18T15:53:29;66.75;;;32.35;;
323;SDS011;149;51.094;17.002;2022-12-18T15:55:58;74.05;;;35.47;;
323;SDS011;149;51.094;17.002;2022-12-18T15:58:44;78.22;;;33.05;;
323;SDS011;149;51.094;17.002;2022-12-18T16:01:11;69.65;;;31.65;;
323;SDS011;149;51.094;17.002;2022-12-18T16:03:38;65.28;;;33.13;;
323;SDS011;149;51.094;17.002;2022-12-18T16:06:06;57.30;;;30.75;;
323;SDS011;149;51.094;17.002;2022-12-18T16:08:33;56.65;;;30.55;;
323;SDS011;149;51.094;17.002;2022-12-18T16:11:00;80.45;;;34.72;;
323;SDS011;149;51.094;17.002;2022-12-18T16:13:27;81.82;;;35.00;;
323;SDS011;149;51.094;17.002;2022-12-18T16:15:54;68.03;;;34.80;;
323;SDS011;149;51.094;17.002;2022-12-18T16:18:21;78.22;;;36.83;;
323;SDS011;149;51.094;17.002;2022-12-18T16:20:48;80.72;;;38.28;;
323;SDS011;149;51.094;17.002;2022-12-18T16:23:15;76.93;;;36.90;;
323;SDS011;149;51.094;17.002;2022-12-18T16:25:42;70.80;;;35.97;;
323;SDS011;149;51.094;17.002;2022-12-18T16:28:09;81.93;;;40.40;;
323;SDS011;149;51.094;17.002;2022-12-18T16:30:36;90.93;;;38.45;;
323;SDS011;149;51.094;17.002;2022-12-18T16:33:04;74.15;;;34.33;;
323;SDS011;149;51.094;17.002;2022-12-18T16:35:32;61.40;;;28.20;;
323;SDS011;149;51.094;17.002;2022-12-18T16:38:00;81.03;;;36.92;;
323;SDS011;149;51.094;17.002;2022-12-18T16:40:27;71.63;;;34.55;;
323;SDS011;149;51.094;17.002;2022-12-18T16:42:54;63.53;;;34.63;;
323;SDS011;149;51.094;17.002;2022-12-18T16:45:21;72.90;;;33.83;;
323;SDS011;149;51.094;17.002;2022-12-18T16:47:48;72.22;;;34.80;;
323;SDS011;149;51.094;17.002;2022-12-18T16:50:18;68.97;;;34.63;;
323;SDS011;149;51.094;17.002;2022-12-18T16:52:45;62.22;;;30.48;;
323;SDS011;149;51.094;17.002;2022-12-18T16:55:12;62.83;;;32.67;;
323;SDS011;149;51.094;17.002;2022-12-18T16:57:39;71.53;;;32.20;;
323;SDS011;149;51.094;17.002;2022-12-18T17:00:06;73.15;;;33.38;;
323;SDS011;149;51.094;17.002;2022-12-18T17:02:33;72.03;;;36.75;;
323;SDS011;149;51.094;17.002;2022-12-18T17:05:04;68.43;;;35.33;;
323;SDS011;149;51.094;17.002;2022-12-18T17:07:31;71.18;;;32.13;;
323;SDS011;149;51.094;17.002;2022-12-18T17:09:59;62.40;;;35.78;;
323;SDS011;149;51.094;17.002;2022-12-18T17:12:27;64.88;;;33.35;;
323;SDS011;149;51.094;17.002;2022-12-18T17:14:54;78.85;;;35.67;;
323;SDS011;149;51.094;17.002;2022-12-18T17:17:21;73.38;;;33.28;;
323;SDS011;149;51.094;17.002;2022-12-18T17:19:49;69.60;;;32.42;;
323;SDS011;149;51.094;17.002;2022-12-18T17:22:17;63.08;;;33.30;;
323;SDS011;149;51.094;17.002;2022-12-18T17:24:45;64.05;;;33.35;;
323;SDS011;149;51.094;17.002;2022-12-18T17:27:12;72.85;;;34.35;;
323;SDS011;149;51.094;17.002;2022-12-18T17:29:39;68.72;;;31.98;;
323;SDS011;149;51.094;17.002;2022-12-18T17:32:13;83.18;;;35.70;;
323;SDS011;149;51.094;17.002;2022-12-18T17:34:40;79.13;;;37.80;;
323;SDS011;149;51.094;17.002;2022-12-18T17:37:07;96.70;;;41.42;;
323;SDS011;149;51.094;17.002;2022-12-18T17:39:34;65.90;;;33.17;;